Jose de San Martin, Argentina
Current Conditions -  °F | °C
As of 12:00 PM on Sunday 21 Dec 2014 (Local Time) from SCAP Reporting Station
Clear Clear  
Wind Chill: 52°   Ceiling: Unl
Heat Index: 52°   Visibility: NA
Dew Point: 32°   Wind: 14mph
Humidity: 47%   Direction: 250°WSW
Pressure: 30.3"   Gusts: NA
Location:  44.03°S, 70.48°W
Report Text: SCAP 211500Z AUTO 25012KT 180V270 //// // NSC 11/00 Q1026
Loading
Personal Weather Stations






























Interactive Weather Map New forecast layout! Learn more

10-Day Weather Forecast

Advertisements
Track Severe Weather on mobile